createdAt,value
2023-03-18T00:01:09.635Z,11.50
2023-03-18T00:03:38.617Z,11.72
2023-03-18T00:06:11.659Z,11.80
2023-03-18T00:08:40.266Z,12.28
2023-03-18T00:11:10.050Z,11.81
2023-03-18T00:13:38.403Z,11.78
2023-03-18T00:16:07.762Z,11.61
2023-03-18T00:18:36.105Z,11.86
2023-03-18T00:21:04.421Z,11.65
2023-03-18T00:23:34.591Z,11.51
2023-03-18T00:26:03.045Z,11.37
2023-03-18T00:28:31.657Z,11.45
2023-03-18T00:31:05.295Z,11.54
2023-03-18T00:33:33.737Z,11.54
2023-03-18T00:36:01.992Z,11.57
2023-03-18T00:38:30.515Z,11.74
2023-03-18T00:41:10.848Z,11.61
2023-03-18T00:43:46.101Z,11.21
2023-03-18T00:46:16.339Z,11.54
2023-03-18T00:48:44.884Z,11.09
2023-03-18T00:51:14.210Z,11.20
2023-03-18T00:53:42.675Z,11.06
2023-03-18T00:56:12.119Z,11.39
2023-03-18T00:58:40.992Z,11.27
2023-03-18T01:01:09.814Z,11.45
2023-03-18T01:03:37.745Z,11.06
2023-03-18T01:06:06.170Z,11.22
2023-03-18T01:08:33.924Z,11.06
2023-03-18T01:11:01.713Z,11.23
2023-03-18T01:13:31.113Z,11.25
2023-03-18T01:15:58.899Z,11.14
2023-03-18T01:18:26.693Z,11.14
2023-03-18T01:20:55.583Z,11.28
2023-03-18T01:23:23.613Z,11.36
2023-03-18T01:25:51.492Z,11.53
2023-03-18T01:28:19.543Z,11.51
2023-03-18T01:30:48.835Z,11.53
2023-03-18T01:33:17.822Z,11.73
2023-03-18T01:35:46.964Z,11.52
2023-03-18T01:38:15.320Z,11.51
2023-03-18T01:40:45.243Z,11.79
2023-03-18T01:43:16.529Z,11.61
2023-03-18T01:45:48.736Z,11.54
2023-03-18T01:48:19.615Z,11.59
2023-03-18T01:50:52.304Z,11.38
2023-03-18T01:53:22.395Z,11.23
2023-03-18T01:55:52.190Z,11.42
2023-03-18T01:58:23.396Z,11.12
2023-03-18T02:00:57.727Z,10.67
2023-03-18T02:03:27.782Z,10.95
2023-03-18T02:05:56.004Z,10.72
2023-03-18T02:08:24.144Z,11.02
2023-03-18T02:10:53.289Z,11.31
2023-03-18T02:13:21.063Z,11.25
2023-03-18T02:15:53.285Z,11.39
2023-03-18T02:18:25.123Z,11.08
2023-03-18T02:21:12.358Z,11.41
2023-03-18T02:23:49.049Z,11.13
2023-03-18T02:26:23.744Z,10.77
2023-03-18T02:28:58.169Z,11.03
2023-03-18T02:31:27.385Z,11.84
2023-03-18T02:33:55.409Z,11.42
2023-03-18T02:36:27.851Z,11.98
2023-03-18T02:38:57.404Z,12.08
2023-03-18T02:41:27.309Z,11.84
2023-03-18T02:43:56.619Z,11.42
2023-03-18T02:46:32.111Z,11.28
2023-03-18T02:49:01.641Z,11.28
2023-03-18T02:51:30.108Z,11.22
2023-03-18T02:54:02.642Z,10.95
2023-03-18T02:56:30.660Z,11.24
2023-03-18T02:58:59.761Z,10.67
2023-03-18T03:01:27.778Z,10.40
2023-03-18T03:03:56.373Z,10.53
2023-03-18T03:06:24.349Z,10.64
2023-03-18T03:08:52.141Z,10.41
2023-03-18T03:11:20.647Z,10.41
2023-03-18T03:13:48.406Z,10.92
2023-03-18T03:16:19.318Z,10.60
2023-03-18T03:18:48.040Z,11.03
2023-03-18T03:21:16.205Z,10.83
2023-03-18T03:23:46.631Z,11.20
2023-03-18T03:26:14.938Z,11.19
2023-03-18T03:28:42.983Z,11.54
2023-03-18T03:31:10.980Z,11.54
2023-03-18T03:33:43.661Z,11.31
2023-03-18T03:36:13.492Z,10.72
2023-03-18T03:38:42.363Z,11.22
2023-03-18T03:41:11.600Z,11.38
2023-03-18T03:43:40.346Z,11.07
2023-03-18T03:46:09.676Z,10.87
2023-03-18T03:48:38.189Z,10.97
2023-03-18T03:51:08.117Z,10.59
2023-03-18T03:53:37.026Z,10.42
2023-03-18T03:56:05.572Z,10.60
2023-03-18T03:58:33.681Z,10.76
2023-03-18T04:01:01.421Z,10.75
2023-03-18T04:03:30.149Z,10.59
2023-03-18T04:05:57.871Z,10.60
2023-03-18T04:08:27.540Z,10.46
2023-03-18T04:10:55.266Z,10.40
2023-03-18T04:13:23.496Z,10.63
2023-03-18T04:15:51.923Z,10.51
2023-03-18T04:18:19.728Z,10.31
2023-03-18T04:20:47.917Z,10.18
2023-03-18T04:23:15.691Z,10.01
2023-03-18T04:25:44.787Z,9.96
2023-03-18T04:28:12.511Z,10.02
2023-03-18T04:30:40.215Z,9.73
2023-03-18T04:33:07.976Z,9.76
2023-03-18T04:35:35.719Z,9.69
2023-03-18T04:38:03.483Z,9.51
2023-03-18T04:40:31.497Z,9.76
2023-03-18T04:43:00.785Z,9.96
2023-03-18T04:45:29.469Z,9.85
2023-03-18T04:47:57.425Z,10.06
2023-03-18T04:50:25.570Z,10.09
2023-03-18T04:52:53.301Z,10.31
2023-03-18T04:55:21.577Z,10.39
2023-03-18T04:57:50.558Z,10.29
2023-03-18T05:00:22.406Z,10.37
2023-03-18T05:02:50.390Z,10.36
2023-03-18T05:05:18.278Z,10.25
2023-03-18T05:07:46.069Z,10.31
2023-03-18T05:10:14.125Z,10.16
2023-03-18T05:12:42.112Z,10.81
2023-03-18T05:15:12.129Z,10.36
2023-03-18T05:17:41.702Z,10.71
2023-03-18T05:20:11.636Z,10.52
2023-03-18T05:22:39.409Z,10.49
2023-03-18T05:25:08.526Z,10.52
2023-03-18T05:27:36.426Z,10.47
2023-03-18T05:30:04.980Z,10.49
2023-03-18T05:32:33.053Z,10.05
2023-03-18T05:35:02.197Z,10.04
2023-03-18T05:37:29.924Z,10.06
2023-03-18T05:39:57.666Z,9.67
2023-03-18T05:42:25.492Z,10.02
2023-03-18T05:44:54.348Z,9.59
2023-03-18T05:47:22.645Z,9.96
2023-03-18T05:49:50.604Z,9.87
2023-03-18T05:52:19.683Z,10.07
2023-03-18T05:54:47.417Z,9.36
2023-03-18T05:57:15.259Z,9.71
2023-03-18T05:59:43.912Z,9.97
2023-03-18T06:02:12.847Z,9.83
2023-03-18T06:04:41.200Z,9.76
2023-03-18T06:07:09.058Z,9.76
2023-03-18T06:09:38.460Z,10.14
2023-03-18T06:12:07.196Z,10.27
2023-03-18T06:14:35.455Z,10.50
2023-03-18T06:17:03.186Z,10.50
2023-03-18T06:19:32.245Z,10.56
2023-03-18T06:21:59.973Z,10.32
2023-03-18T06:24:28.682Z,10.63
2023-03-18T06:26:57.780Z,10.06
2023-03-18T06:29:25.490Z,10.70
2023-03-18T06:31:53.305Z,10.47
2023-03-18T06:34:21.015Z,10.66
2023-03-18T06:36:48.757Z,10.68
2023-03-18T06:39:16.477Z,10.47
2023-03-18T06:41:44.821Z,10.42
2023-03-18T06:44:14.790Z,10.78
2023-03-18T06:46:43.995Z,10.90
2023-03-18T06:49:12.720Z,10.73
2023-03-18T06:51:40.496Z,10.97
2023-03-18T06:54:09.472Z,10.72
2023-03-18T06:56:38.960Z,11.00
2023-03-18T06:59:07.996Z,11.10
2023-03-18T07:01:38.114Z,10.20
2023-03-18T07:04:06.868Z,10.06
2023-03-18T07:06:34.884Z,11.14
2023-03-18T07:09:02.884Z,10.84
2023-03-18T07:11:30.912Z,10.56
2023-03-18T07:13:58.642Z,10.81
2023-03-18T07:16:26.432Z,11.14
2023-03-18T07:18:58.238Z,11.22
2023-03-18T07:21:25.992Z,11.45
2023-03-18T07:23:55.538Z,11.15
2023-03-18T07:26:24.114Z,11.37
2023-03-18T07:28:51.867Z,11.91
2023-03-18T07:31:19.682Z,11.63
2023-03-18T07:33:47.416Z,11.38
2023-03-18T07:36:16.528Z,11.47
2023-03-18T07:38:44.333Z,11.22
2023-03-18T07:41:12.618Z,11.59
2023-03-18T07:43:40.371Z,11.59
2023-03-18T07:46:08.245Z,11.57
2023-03-18T07:48:36.054Z,11.61
2023-03-18T07:51:03.798Z,11.86
2023-03-18T07:53:33.744Z,11.25
2023-03-18T07:56:02.062Z,11.41
2023-03-18T07:58:29.802Z,11.52
2023-03-18T08:00:57.728Z,11.71
2023-03-18T08:03:25.449Z,12.00
2023-03-18T08:05:53.248Z,11.47
2023-03-18T08:08:21.902Z,11.50
2023-03-18T08:10:51.114Z,11.65
2023-03-18T08:13:18.869Z,11.82
2023-03-18T08:15:46.782Z,11.74
2023-03-18T08:18:14.676Z,12.11
2023-03-18T08:20:42.462Z,11.98
2023-03-18T08:23:10.213Z,12.24
2023-03-18T08:25:38.009Z,12.38
2023-03-18T08:28:07.653Z,12.16
2023-03-18T08:30:35.908Z,12.52
2023-03-18T08:33:03.804Z,12.29
2023-03-18T08:35:31.699Z,12.76
2023-03-18T08:37:59.918Z,12.57
2023-03-18T08:40:28.223Z,12.03
2023-03-18T08:42:55.958Z,12.71
2023-03-18T08:45:27.184Z,13.08
2023-03-18T08:47:55.236Z,12.56
2023-03-18T08:50:28.351Z,12.59
2023-03-18T08:52:57.991Z,12.74
2023-03-18T08:55:31.383Z,12.80
2023-03-18T08:58:00.137Z,13.74
2023-03-18T09:00:29.462Z,14.29
2023-03-18T09:02:57.244Z,13.49
2023-03-18T09:05:25.880Z,14.00
2023-03-18T09:07:53.677Z,14.27
2023-03-18T09:10:21.648Z,13.76
2023-03-18T09:12:49.968Z,13.62
2023-03-18T09:15:20.224Z,13.96
2023-03-18T09:18:04.144Z,14.56
2023-03-18T09:20:38.960Z,14.85
2023-03-18T09:23:07.509Z,14.40
2023-03-18T09:25:35.420Z,14.75
2023-03-18T09:28:03.502Z,15.45
2023-03-18T09:30:32.088Z,16.24
2023-03-18T09:33:01.749Z,16.57
2023-03-18T09:35:30.501Z,16.36
2023-03-18T09:37:58.410Z,17.44
2023-03-18T09:40:28.867Z,16.44
2023-03-18T09:43:06.279Z,17.04
2023-03-18T09:45:38.837Z,16.36
2023-03-18T09:48:35.693Z,15.76
2023-03-18T09:51:13.706Z,16.42
2023-03-18T09:53:47.119Z,15.86
2023-03-18T09:56:19.037Z,16.55
2023-03-18T09:58:53.838Z,17.54
2023-03-18T10:01:23.822Z,19.07
2023-03-18T10:03:58.083Z,19.58
2023-03-18T10:06:26.432Z,18.80
2023-03-18T10:09:01.987Z,19.61
2023-03-18T10:11:33.151Z,18.21
2023-03-18T10:14:22.444Z,17.58
2023-03-18T10:16:59.470Z,17.99
2023-03-18T10:19:29.602Z,18.23
2023-03-18T10:22:10.586Z,18.98
2023-03-18T10:24:43.583Z,18.41
2023-03-18T10:27:19.136Z,18.93
2023-03-18T10:29:50.275Z,19.22
2023-03-18T10:32:42.849Z,20.13
2023-03-18T10:35:32.079Z,20.65
2023-03-18T10:38:04.586Z,21.15
2023-03-18T10:40:37.610Z,20.35
2023-03-18T10:43:11.867Z,20.29
2023-03-18T10:45:39.919Z,20.02
2023-03-18T10:48:16.003Z,19.96
2023-03-18T10:50:51.588Z,18.63
2023-03-18T10:53:28.219Z,18.46
2023-03-18T10:56:04.427Z,19.29
2023-03-18T10:58:32.165Z,20.52
2023-03-18T11:01:00.502Z,20.96
2023-03-18T11:03:31.572Z,19.75
2023-03-18T11:06:04.689Z,20.08
2023-03-18T11:08:35.638Z,20.64
2023-03-18T11:11:17.498Z,19.80
2023-03-18T11:13:52.860Z,20.38
2023-03-18T11:16:42.523Z,21.61
2023-03-18T11:19:28.936Z,19.66
2023-03-18T11:22:10.598Z,19.13
2023-03-18T11:24:43.675Z,18.66
2023-03-18T11:27:27.844Z,17.85
2023-03-18T11:29:58.251Z,18.16
2023-03-18T11:32:29.066Z,17.39
2023-03-18T11:34:58.804Z,17.37
2023-03-18T11:37:35.889Z,17.43
2023-03-18T11:40:25.829Z,17.68
2023-03-18T11:42:58.698Z,17.25
2023-03-18T11:45:45.156Z,17.76
2023-03-18T11:48:18.626Z,16.73
2023-03-18T11:50:58.436Z,17.04
2023-03-18T11:53:37.837Z,17.49
2023-03-18T11:56:15.167Z,17.35
2023-03-18T11:59:08.574Z,17.51
2023-03-18T12:01:50.515Z,17.24
2023-03-18T12:04:36.150Z,17.21
2023-03-18T12:07:23.670Z,17.26
2023-03-18T12:10:03.706Z,17.52
2023-03-18T12:12:47.549Z,16.72
2023-03-18T12:15:23.753Z,16.93
2023-03-18T12:18:02.561Z,16.65
2023-03-18T12:20:50.517Z,16.48
2023-03-18T12:23:38.054Z,16.47
2023-03-18T12:26:09.568Z,15.98
2023-03-18T12:28:49.328Z,16.21
2023-03-18T12:31:35.245Z,16.24
2023-03-18T12:34:04.567Z,16.31
2023-03-18T12:36:54.119Z,16.13
2023-03-18T12:39:52.215Z,16.01
2023-03-18T12:42:31.398Z,16.23
2023-03-18T12:45:01.962Z,16.48
2023-03-18T12:47:38.884Z,16.33
2023-03-18T12:50:16.398Z,16.52
2023-03-18T12:52:47.548Z,16.34
2023-03-18T12:55:19.303Z,16.34
2023-03-18T12:57:50.782Z,16.57
2023-03-18T13:00:24.844Z,16.11
2023-03-18T13:03:07.843Z,16.35
2023-03-18T13:05:45.497Z,16.43
2023-03-18T13:08:44.562Z,16.47
2023-03-18T13:11:27.194Z,15.89
2023-03-18T13:14:04.748Z,16.54
2023-03-18T13:16:36.302Z,16.50
2023-03-18T13:19:04.829Z,17.11
2023-03-18T13:21:36.120Z,16.85
2023-03-18T13:24:25.458Z,16.89
2023-03-18T13:27:19.717Z,16.98
2023-03-18T13:29:55.349Z,17.35
2023-03-18T13:32:39.176Z,17.57
2023-03-18T13:35:28.518Z,17.14
2023-03-18T13:38:21.291Z,17.78
2023-03-18T13:41:04.547Z,18.48
2023-03-18T13:43:34.903Z,20.52
2023-03-18T13:46:04.441Z,21.05
2023-03-18T13:48:34.661Z,21.22
2023-03-18T13:51:20.471Z,20.70
2023-03-18T13:53:50.621Z,20.41
2023-03-18T13:56:32.964Z,19.46
2023-03-18T13:59:05.783Z,19.21
2023-03-18T14:01:36.453Z,19.42
2023-03-18T14:04:31.427Z,19.06
2023-03-18T14:07:15.387Z,18.31
2023-03-18T14:09:52.771Z,18.68
2023-03-18T14:12:24.030Z,17.82
2023-03-18T14:14:57.669Z,18.53
2023-03-18T14:17:41.928Z,18.96
2023-03-18T14:20:27.220Z,18.28
2023-03-18T14:22:56.204Z,18.36
2023-03-18T14:25:41.976Z,18.33
2023-03-18T14:28:28.586Z,18.89
2023-03-18T14:31:14.662Z,18.59
2023-03-18T14:33:58.301Z,17.64
2023-03-18T14:36:48.193Z,18.00
2023-03-18T14:39:19.412Z,17.99
2023-03-18T14:41:52.596Z,18.48
2023-03-18T14:44:25.225Z,19.05
2023-03-18T14:46:58.881Z,18.77
2023-03-18T14:49:36.545Z,18.80
2023-03-18T14:52:14.000Z,18.42
2023-03-18T14:54:45.921Z,18.11
2023-03-18T14:57:14.162Z,18.24
2023-03-18T14:59:41.912Z,17.84
2023-03-18T15:02:23.823Z,17.96
2023-03-18T15:04:55.448Z,18.18
2023-03-18T15:07:30.187Z,17.63
2023-03-18T15:09:58.946Z,17.54
2023-03-18T15:12:28.818Z,17.62
2023-03-18T15:14:57.149Z,17.54
2023-03-18T15:17:27.454Z,18.00
2023-03-18T15:20:00.071Z,18.28
2023-03-18T15:22:31.399Z,19.78
2023-03-18T15:25:02.517Z,19.32
2023-03-18T15:27:31.995Z,20.34
2023-03-18T15:30:01.511Z,21.18
2023-03-18T15:32:31.658Z,21.12
2023-03-18T15:35:14.913Z,20.18
2023-03-18T15:37:43.869Z,18.75
2023-03-18T15:40:30.760Z,20.19
2023-03-18T15:42:59.861Z,20.31
2023-03-18T15:45:31.439Z,20.54
2023-03-18T15:48:08.145Z,20.12
2023-03-18T15:50:37.618Z,20.42
2023-03-18T15:53:17.775Z,20.37
2023-03-18T15:55:50.057Z,19.67
2023-03-18T15:58:23.249Z,19.64
2023-03-18T16:00:53.022Z,19.38
2023-03-18T16:03:23.524Z,19.59
2023-03-18T16:05:54.604Z,18.51
2023-03-18T16:08:23.342Z,19.17
2023-03-18T16:10:53.569Z,19.06
2023-03-18T16:13:25.073Z,19.05
2023-03-18T16:15:53.212Z,19.17
2023-03-18T16:18:21.321Z,19.54
2023-03-18T16:20:49.667Z,19.23
2023-03-18T16:23:19.096Z,18.80
2023-03-18T16:25:49.152Z,19.16
2023-03-18T16:28:22.537Z,18.91
2023-03-18T16:30:52.149Z,19.00
2023-03-18T16:33:21.656Z,19.02
2023-03-18T16:35:54.307Z,19.57
2023-03-18T16:38:23.762Z,20.19
2023-03-18T16:40:53.867Z,20.31
2023-03-18T16:43:24.015Z,20.42
2023-03-18T16:45:52.446Z,18.66
2023-03-18T16:48:21.862Z,19.18
2023-03-18T16:50:51.500Z,18.95
2023-03-18T16:53:22.208Z,18.16
2023-03-18T16:55:53.813Z,18.10
2023-03-18T16:58:26.596Z,17.62
2023-03-18T17:00:54.413Z,18.02
2023-03-18T17:03:22.426Z,17.95
2023-03-18T17:05:52.107Z,17.97
2023-03-18T17:08:21.562Z,17.97
2023-03-18T17:10:55.287Z,17.87
2023-03-18T17:13:25.981Z,17.53
2023-03-18T17:15:54.085Z,17.55
2023-03-18T17:18:24.434Z,17.33
2023-03-18T17:20:52.766Z,17.33
2023-03-18T17:23:22.390Z,17.12
2023-03-18T17:25:54.649Z,16.88
2023-03-18T17:28:29.915Z,16.82
2023-03-18T17:30:57.891Z,16.75
2023-03-18T17:33:27.889Z,16.54
2023-03-18T17:35:56.642Z,16.53
2023-03-18T17:38:24.604Z,16.66
2023-03-18T17:40:55.429Z,16.41
2023-03-18T17:43:29.334Z,16.41
2023-03-18T17:45:57.534Z,16.17
2023-03-18T17:48:26.781Z,15.83
2023-03-18T17:50:56.910Z,15.36
2023-03-18T17:53:28.198Z,15.85
2023-03-18T17:55:57.679Z,16.04
2023-03-18T17:58:28.358Z,16.06
2023-03-18T18:01:06.641Z,16.06
2023-03-18T18:03:36.384Z,16.01
2023-03-18T18:06:04.744Z,15.89
2023-03-18T18:08:32.719Z,15.84
2023-03-18T18:11:10.951Z,15.87
2023-03-18T18:13:38.723Z,15.92
2023-03-18T18:16:07.047Z,15.81
2023-03-18T18:18:37.054Z,15.88
2023-03-18T18:21:06.803Z,15.83
2023-03-18T18:23:37.017Z,15.77
2023-03-18T18:26:08.678Z,15.84
2023-03-18T18:28:38.517Z,15.82
2023-03-18T18:31:10.245Z,15.65
2023-03-18T18:33:39.584Z,15.35
2023-03-18T18:36:08.508Z,15.27
2023-03-18T18:38:36.494Z,15.38
2023-03-18T18:41:04.254Z,15.18
2023-03-18T18:43:33.391Z,15.39
2023-03-18T18:46:01.340Z,15.28
2023-03-18T18:48:31.654Z,15.21
2023-03-18T18:51:00.572Z,15.13
2023-03-18T18:53:30.956Z,14.85
2023-03-18T18:56:00.970Z,14.61
2023-03-18T18:58:32.624Z,14.65
2023-03-18T19:01:01.786Z,14.54
2023-03-18T19:03:31.768Z,15.02
2023-03-18T19:06:01.515Z,14.68
2023-03-18T19:08:31.688Z,14.68
2023-03-18T19:11:01.521Z,14.87
2023-03-18T19:13:30.992Z,14.91
2023-03-18T19:16:02.805Z,14.78
2023-03-18T19:18:35.970Z,14.66
2023-03-18T19:21:03.795Z,14.74
2023-03-18T19:23:34.221Z,14.85
2023-03-18T19:26:03.052Z,14.80
2023-03-18T19:28:58.343Z,14.49
2023-03-18T19:31:31.303Z,14.53
2023-03-18T19:34:00.777Z,14.44
2023-03-18T19:36:30.268Z,14.39
2023-03-18T19:39:00.337Z,14.35
2023-03-18T19:41:28.635Z,14.41
2023-03-18T19:44:00.451Z,14.43
2023-03-18T19:46:35.994Z,14.36
2023-03-18T19:49:03.898Z,14.35
2023-03-18T19:51:31.691Z,14.38
2023-03-18T19:53:59.672Z,14.35
2023-03-18T19:56:28.955Z,14.08
2023-03-18T19:58:59.018Z,13.78
2023-03-18T20:01:28.921Z,12.63
2023-03-18T20:03:59.440Z,12.54
2023-03-18T20:06:27.618Z,13.20
2023-03-18T20:08:55.644Z,13.38
2023-03-18T20:11:23.803Z,13.69
2023-03-18T20:13:51.591Z,13.84
2023-03-18T20:16:19.825Z,13.09
2023-03-18T20:18:47.565Z,12.87
2023-03-18T20:21:24.134Z,12.99
2023-03-18T20:23:52.581Z,13.22
2023-03-18T20:26:20.562Z,13.08
2023-03-18T20:28:51.417Z,13.10
2023-03-18T20:31:19.197Z,13.24
2023-03-18T20:33:46.929Z,13.07
2023-03-18T20:36:19.157Z,12.73
2023-03-18T20:38:49.963Z,12.52
2023-03-18T20:41:18.849Z,12.67
2023-03-18T20:43:49.288Z,12.25
2023-03-18T20:46:18.080Z,12.27
2023-03-18T20:48:49.304Z,12.29
2023-03-18T20:51:24.213Z,12.08
2023-03-18T20:53:52.007Z,12.03
2023-03-18T20:56:22.824Z,12.46
2023-03-18T20:58:50.626Z,12.23
2023-03-18T21:01:19.297Z,12.12
2023-03-18T21:03:47.189Z,11.67
2023-03-18T21:06:16.387Z,11.87
2023-03-18T21:08:45.549Z,12.10
2023-03-18T21:11:22.817Z,12.01
2023-03-18T21:13:51.052Z,11.88
2023-03-18T21:16:20.008Z,11.58
2023-03-18T21:18:49.519Z,11.26
2023-03-18T21:21:23.865Z,11.33
2023-03-18T21:23:54.452Z,11.48
2023-03-18T21:26:22.551Z,11.62
2023-03-18T21:28:50.351Z,11.87
2023-03-18T21:31:27.708Z,12.01
2023-03-18T21:33:57.425Z,11.74
2023-03-18T21:36:26.080Z,11.41
2023-03-18T21:38:55.457Z,11.71
2023-03-18T21:41:25.429Z,11.56
2023-03-18T21:43:53.533Z,11.20
2023-03-18T21:46:23.023Z,11.45
2023-03-18T21:48:51.316Z,11.56
2023-03-18T21:51:37.891Z,11.25
2023-03-18T21:54:14.488Z,11.31
2023-03-18T21:56:42.200Z,11.62
2023-03-18T21:59:09.930Z,11.74
2023-03-18T22:01:37.716Z,11.74
2023-03-18T22:04:05.531Z,11.69
2023-03-18T22:06:33.970Z,11.43
2023-03-18T22:09:02.284Z,11.29
2023-03-18T22:11:31.588Z,10.99
2023-03-18T22:13:59.343Z,10.90
2023-03-18T22:16:27.130Z,11.24
2023-03-18T22:18:54.971Z,11.18
2023-03-18T22:21:26.038Z,11.21
2023-03-18T22:23:54.387Z,10.68
2023-03-18T22:26:22.761Z,10.64
2023-03-18T22:28:51.868Z,10.84
2023-03-18T22:31:21.949Z,11.00
2023-03-18T22:33:49.736Z,10.91
2023-03-18T22:36:19.599Z,10.85
2023-03-18T22:38:47.383Z,10.84
2023-03-18T22:41:20.752Z,10.95
2023-03-18T22:43:48.932Z,11.08
2023-03-18T22:46:18.266Z,11.10
2023-03-18T22:48:46.331Z,11.11
2023-03-18T22:51:22.379Z,11.13
2023-03-18T22:53:52.393Z,11.17
2023-03-18T22:56:20.249Z,11.12
2023-03-18T22:58:48.171Z,11.06
2023-03-18T23:01:18.797Z,10.90
2023-03-18T23:03:47.756Z,10.90
2023-03-18T23:06:17.285Z,10.91
2023-03-18T23:08:46.414Z,10.90
2023-03-18T23:11:15.049Z,10.93
2023-03-18T23:13:44.082Z,10.80
2023-03-18T23:16:16.006Z,10.64
2023-03-18T23:18:45.633Z,10.85
2023-03-18T23:21:17.762Z,10.76
2023-03-18T23:23:45.686Z,10.73
2023-03-18T23:26:13.752Z,10.73
2023-03-18T23:28:44.902Z,10.75
2023-03-18T23:31:13.713Z,10.75
2023-03-18T23:33:41.518Z,10.76
2023-03-18T23:36:11.801Z,10.71
2023-03-18T23:38:39.711Z,10.53
2023-03-18T23:41:08.246Z,10.37
2023-03-18T23:43:36.743Z,10.38
2023-03-18T23:46:04.723Z,10.47
2023-03-18T23:48:32.639Z,10.04
2023-03-18T23:51:00.713Z,10.00
2023-03-18T23:53:30.040Z,10.25
2023-03-18T23:55:57.766Z,10.55
2023-03-18T23:58:25.557Z,9.78
